Terreton, Idaho
Current Conditions -  °F | °C
As of 3:53 PM on Friday 31 Oct 2014 (Local Time) from KIDA Reporting Station
Clear Clear  
Wind Chill: 70°   Ceiling: Unl
Heat Index: 70°   Visibility: 10mi
Dew Point: 27°   Wind: 15mph
Humidity: 20%   Direction: 220°SW
Pressure: 29.87"   Gusts: NA
Location:  43.84°N, 112.44°W
Report Text: KIDA 312153Z AUTO 22013KT 10SM CLR 21/M03 A2987 RMK AO2 PK WND 21027/2124 SLP093 T02111028
Loading
Personal Weather Stations






























Interactive Weather Map
Tropical Storm Tracking
New forecast layout! Learn more

10-Day Weather Forecast

Advertisements
Track Severe Weather on mobile